sensor_id;sensor_type;location;lat;lon;timestamp;P1;durP1;ratioP1;P2;durP2;ratioP2
52744;SDS011;38637;49.984;20.426;2023-03-20T00:01:19;44.33;;;28.75;;
52744;SDS011;38637;49.984;20.426;2023-03-20T00:03:50;45.33;;;28.25;;
52744;SDS011;38637;49.984;20.426;2023-03-20T00:06:26;43.93;;;30.17;;
52744;SDS011;38637;49.984;20.426;2023-03-20T00:08:55;47.58;;;31.88;;
52744;SDS011;38637;49.984;20.426;2023-03-20T00:14:03;41.90;;;28.58;;
52744;SDS011;38637;49.984;20.426;2023-03-20T00:16:32;47.85;;;31.27;;
52744;SDS011;38637;49.984;20.426;2023-03-20T00:19:00;43.72;;;28.50;;
52744;SDS011;38637;49.984;20.426;2023-03-20T00:21:27;45.17;;;30.40;;
52744;SDS011;38637;49.984;20.426;2023-03-20T00:23:53;45.53;;;29.30;;
52744;SDS011;38637;49.984;20.426;2023-03-20T00:26:27;47.75;;;30.48;;
52744;SDS011;38637;49.984;20.426;2023-03-20T00:28:57;48.72;;;30.80;;
52744;SDS011;38637;49.984;20.426;2023-03-20T00:31:23;47.63;;;30.10;;
52744;SDS011;38637;49.984;20.426;2023-03-20T00:33:51;47.85;;;31.05;;
52744;SDS011;38637;49.984;20.426;2023-03-20T00:36:18;50.20;;;29.65;;
52744;SDS011;38637;49.984;20.426;2023-03-20T00:38:44;55.08;;;32.63;;
52744;SDS011;38637;49.984;20.426;2023-03-20T00:41:12;43.87;;;28.80;;
52744;SDS011;38637;49.984;20.426;2023-03-20T00:44:02;50.40;;;32.60;;
52744;SDS011;38637;49.984;20.426;2023-03-20T00:46:31;40.03;;;27.98;;
52744;SDS011;38637;49.984;20.426;2023-03-20T00:49:00;47.55;;;30.42;;
52744;SDS011;38637;49.984;20.426;2023-03-20T00:51:25;46.10;;;28.57;;
52744;SDS011;38637;49.984;20.426;2023-03-20T00:53:51;47.00;;;29.73;;
52744;SDS011;38637;49.984;20.426;2023-03-20T00:58:53;46.15;;;29.23;;
52744;SDS011;38637;49.984;20.426;2023-03-20T01:01:19;41.17;;;26.93;;
52744;SDS011;38637;49.984;20.426;2023-03-20T01:03:44;45.30;;;27.47;;
52744;SDS011;38637;49.984;20.426;2023-03-20T01:06:10;40.83;;;25.97;;
52744;SDS011;38637;49.984;20.426;2023-03-20T01:08:37;39.88;;;25.50;;
52744;SDS011;38637;49.984;20.426;2023-03-20T01:11:02;42.47;;;28.07;;
52744;SDS011;38637;49.984;20.426;2023-03-20T01:13:28;43.37;;;27.03;;
52744;SDS011;38637;49.984;20.426;2023-03-20T01:15:55;37.90;;;25.67;;
52744;SDS011;38637;49.984;20.426;2023-03-20T01:18:23;35.50;;;23.98;;
52744;SDS011;38637;49.984;20.426;2023-03-20T01:20:49;41.50;;;26.15;;
52744;SDS011;38637;49.984;20.426;2023-03-20T01:23:17;39.42;;;25.20;;
52744;SDS011;38637;49.984;20.426;2023-03-20T01:25:43;37.53;;;24.00;;
52744;SDS011;38637;49.984;20.426;2023-03-20T01:28:19;34.97;;;25.03;;
52744;SDS011;38637;49.984;20.426;2023-03-20T01:30:46;38.17;;;24.33;;
52744;SDS011;38637;49.984;20.426;2023-03-20T01:33:16;35.58;;;24.63;;
52744;SDS011;38637;49.984;20.426;2023-03-20T01:35:46;34.78;;;24.77;;
52744;SDS011;38637;49.984;20.426;2023-03-20T01:38:20;36.40;;;25.20;;
52744;SDS011;38637;49.984;20.426;2023-03-20T01:40:50;33.95;;;23.92;;
52744;SDS011;38637;49.984;20.426;2023-03-20T01:43:22;38.10;;;24.55;;
52744;SDS011;38637;49.984;20.426;2023-03-20T01:46:33;36.08;;;23.58;;
52744;SDS011;38637;49.984;20.426;2023-03-20T01:53:49;37.45;;;25.52;;
52744;SDS011;38637;49.984;20.426;2023-03-20T01:56:18;38.03;;;25.13;;
52744;SDS011;38637;49.984;20.426;2023-03-20T01:58:46;34.75;;;24.67;;
52744;SDS011;38637;49.984;20.426;2023-03-20T02:01:14;36.33;;;24.02;;
52744;SDS011;38637;49.984;20.426;2023-03-20T02:03:41;39.58;;;25.02;;
52744;SDS011;38637;49.984;20.426;2023-03-20T02:06:09;36.30;;;24.60;;
52744;SDS011;38637;49.984;20.426;2023-03-20T02:08:36;34.83;;;23.73;;
52744;SDS011;38637;49.984;20.426;2023-03-20T02:11:07;38.50;;;24.95;;
52744;SDS011;38637;49.984;20.426;2023-03-20T02:13:33;35.27;;;23.33;;
52744;SDS011;38637;49.984;20.426;2023-03-20T02:16:15;37.35;;;23.92;;
52744;SDS011;38637;49.984;20.426;2023-03-20T02:18:42;36.05;;;24.73;;
52744;SDS011;38637;49.984;20.426;2023-03-20T02:26:52;35.78;;;24.15;;
52744;SDS011;38637;49.984;20.426;2023-03-20T02:41:24;33.08;;;22.52;;
52744;SDS011;38637;49.984;20.426;2023-03-20T02:44:13;34.72;;;24.52;;
52744;SDS011;38637;49.984;20.426;2023-03-20T03:00:14;31.58;;;22.25;;
52744;SDS011;38637;49.984;20.426;2023-03-20T03:05:21;36.35;;;23.70;;
52744;SDS011;38637;49.984;20.426;2023-03-20T03:07:49;43.30;;;25.23;;
52744;SDS011;38637;49.984;20.426;2023-03-20T03:10:20;39.83;;;24.13;;
52744;SDS011;38637;49.984;20.426;2023-03-20T03:12:48;36.15;;;24.85;;
52744;SDS011;38637;49.984;20.426;2023-03-20T03:15:19;35.70;;;24.90;;
52744;SDS011;38637;49.984;20.426;2023-03-20T03:17:46;33.53;;;23.90;;
52744;SDS011;38637;49.984;20.426;2023-03-20T03:20:19;34.88;;;24.50;;
52744;SDS011;38637;49.984;20.426;2023-03-20T03:22:47;39.20;;;24.77;;
52744;SDS011;38637;49.984;20.426;2023-03-20T03:25:13;35.45;;;24.33;;
52744;SDS011;38637;49.984;20.426;2023-03-20T03:27:40;36.30;;;23.10;;
52744;SDS011;38637;49.984;20.426;2023-03-20T03:30:16;32.78;;;24.00;;
52744;SDS011;38637;49.984;20.426;2023-03-20T03:32:49;35.13;;;23.67;;
52744;SDS011;38637;49.984;20.426;2023-03-20T03:35:27;36.60;;;24.58;;
52744;SDS011;38637;49.984;20.426;2023-03-20T03:40:34;32.03;;;22.02;;
52744;SDS011;38637;49.984;20.426;2023-03-20T03:45:40;35.35;;;23.65;;
52744;SDS011;38637;49.984;20.426;2023-03-20T03:48:12;32.55;;;23.38;;
52744;SDS011;38637;49.984;20.426;2023-03-20T03:50:42;36.58;;;24.02;;
52744;SDS011;38637;49.984;20.426;2023-03-20T03:53:13;33.80;;;23.65;;
52744;SDS011;38637;49.984;20.426;2023-03-20T03:55:42;31.65;;;23.77;;
52744;SDS011;38637;49.984;20.426;2023-03-20T03:58:14;34.40;;;24.52;;
52744;SDS011;38637;49.984;20.426;2023-03-20T04:00:45;33.70;;;23.35;;
52744;SDS011;38637;49.984;20.426;2023-03-20T04:03:14;33.58;;;24.88;;
52744;SDS011;38637;49.984;20.426;2023-03-20T04:05:42;35.08;;;23.33;;
52744;SDS011;38637;49.984;20.426;2023-03-20T04:08:09;35.13;;;24.30;;
52744;SDS011;38637;49.984;20.426;2023-03-20T04:10:35;34.83;;;23.70;;
52744;SDS011;38637;49.984;20.426;2023-03-20T04:13:00;36.50;;;23.87;;
52744;SDS011;38637;49.984;20.426;2023-03-20T04:15:26;28.87;;;21.73;;
52744;SDS011;38637;49.984;20.426;2023-03-20T04:17:51;31.43;;;22.27;;
52744;SDS011;38637;49.984;20.426;2023-03-20T04:20:17;35.30;;;23.33;;
52744;SDS011;38637;49.984;20.426;2023-03-20T04:22:43;33.53;;;22.13;;
52744;SDS011;38637;49.984;20.426;2023-03-20T04:25:13;30.90;;;22.27;;
52744;SDS011;38637;49.984;20.426;2023-03-20T04:27:41;31.80;;;22.73;;
52744;SDS011;38637;49.984;20.426;2023-03-20T04:30:06;32.57;;;21.70;;
52744;SDS011;38637;49.984;20.426;2023-03-20T04:32:32;32.72;;;22.55;;
52744;SDS011;38637;49.984;20.426;2023-03-20T04:34:58;25.97;;;20.13;;
52744;SDS011;38637;49.984;20.426;2023-03-20T04:37:23;28.70;;;21.20;;
52744;SDS011;38637;49.984;20.426;2023-03-20T04:39:48;26.40;;;19.23;;
52744;SDS011;38637;49.984;20.426;2023-03-20T04:42:14;31.60;;;20.07;;
52744;SDS011;38637;49.984;20.426;2023-03-20T04:44:39;27.47;;;19.47;;
52744;SDS011;38637;49.984;20.426;2023-03-20T04:47:05;28.57;;;19.07;;
52744;SDS011;38637;49.984;20.426;2023-03-20T04:49:30;28.53;;;19.37;;
52744;SDS011;38637;49.984;20.426;2023-03-20T04:51:55;26.70;;;19.30;;
52744;SDS011;38637;49.984;20.426;2023-03-20T04:54:21;26.87;;;18.93;;
52744;SDS011;38637;49.984;20.426;2023-03-20T04:56:46;34.40;;;19.60;;
52744;SDS011;38637;49.984;20.426;2023-03-20T04:59:11;33.97;;;19.30;;
52744;SDS011;38637;49.984;20.426;2023-03-20T05:01:37;30.03;;;18.97;;
52744;SDS011;38637;49.984;20.426;2023-03-20T05:04:02;35.13;;;19.73;;
52744;SDS011;38637;49.984;20.426;2023-03-20T05:06:28;25.50;;;18.60;;
52744;SDS011;38637;49.984;20.426;2023-03-20T05:08:54;26.45;;;19.33;;
52744;SDS011;38637;49.984;20.426;2023-03-20T05:11:19;28.37;;;18.80;;
52744;SDS011;38637;49.984;20.426;2023-03-20T05:13:45;24.40;;;17.70;;
52744;SDS011;38637;49.984;20.426;2023-03-20T05:16:10;24.00;;;15.63;;
52744;SDS011;38637;49.984;20.426;2023-03-20T05:18:36;27.53;;;17.10;;
52744;SDS011;38637;49.984;20.426;2023-03-20T05:21:01;30.47;;;16.57;;
52744;SDS011;38637;49.984;20.426;2023-03-20T05:23:26;27.20;;;17.63;;
52744;SDS011;38637;49.984;20.426;2023-03-20T05:25:52;23.87;;;17.07;;
52744;SDS011;38637;49.984;20.426;2023-03-20T05:28:17;27.83;;;16.30;;
52744;SDS011;38637;49.984;20.426;2023-03-20T05:30:42;24.67;;;18.20;;
52744;SDS011;38637;49.984;20.426;2023-03-20T05:33:08;24.20;;;16.33;;
52744;SDS011;38637;49.984;20.426;2023-03-20T05:35:33;25.60;;;17.23;;
52744;SDS011;38637;49.984;20.426;2023-03-20T05:37:58;23.47;;;15.77;;
52744;SDS011;38637;49.984;20.426;2023-03-20T05:40:24;24.95;;;16.40;;
52744;SDS011;38637;49.984;20.426;2023-03-20T05:42:50;28.63;;;18.03;;
52744;SDS011;38637;49.984;20.426;2023-03-20T05:45:16;28.27;;;17.00;;
52744;SDS011;38637;49.984;20.426;2023-03-20T05:47:42;27.30;;;17.70;;
52744;SDS011;38637;49.984;20.426;2023-03-20T05:50:08;26.70;;;17.73;;
52744;SDS011;38637;49.984;20.426;2023-03-20T05:52:34;29.80;;;17.00;;
52744;SDS011;38637;49.984;20.426;2023-03-20T05:55:00;30.50;;;17.27;;
52744;SDS011;38637;49.984;20.426;2023-03-20T05:57:25;32.53;;;17.47;;
52744;SDS011;38637;49.984;20.426;2023-03-20T05:59:51;21.90;;;14.93;;
52744;SDS011;38637;49.984;20.426;2023-03-20T06:02:16;17.67;;;12.17;;
52744;SDS011;38637;49.984;20.426;2023-03-20T06:04:41;16.93;;;12.37;;
52744;SDS011;38637;49.984;20.426;2023-03-20T06:07:07;28.17;;;12.13;;
52744;SDS011;38637;49.984;20.426;2023-03-20T06:09:32;16.80;;;11.03;;
52744;SDS011;38637;49.984;20.426;2023-03-20T06:11:58;17.50;;;10.07;;
52744;SDS011;38637;49.984;20.426;2023-03-20T06:14:23;15.53;;;10.10;;
52744;SDS011;38637;49.984;20.426;2023-03-20T06:16:49;13.37;;;10.00;;
52744;SDS011;38637;49.984;20.426;2023-03-20T06:19:14;15.90;;;11.70;;
52744;SDS011;38637;49.984;20.426;2023-03-20T06:21:40;16.73;;;11.07;;
52744;SDS011;38637;49.984;20.426;2023-03-20T06:24:05;11.80;;;8.67;;
52744;SDS011;38637;49.984;20.426;2023-03-20T06:26:31;14.33;;;8.43;;
52744;SDS011;38637;49.984;20.426;2023-03-20T06:28:56;9.70;;;7.90;;
52744;SDS011;38637;49.984;20.426;2023-03-20T06:31:21;13.00;;;8.03;;
52744;SDS011;38637;49.984;20.426;2023-03-20T06:33:47;10.20;;;7.77;;
52744;SDS011;38637;49.984;20.426;2023-03-20T06:36:13;11.43;;;8.60;;
52744;SDS011;38637;49.984;20.426;2023-03-20T06:38:38;13.90;;;8.93;;
52744;SDS011;38637;49.984;20.426;2023-03-20T06:41:03;16.00;;;7.63;;
52744;SDS011;38637;49.984;20.426;2023-03-20T06:43:29;12.30;;;8.13;;
52744;SDS011;38637;49.984;20.426;2023-03-20T06:45:54;13.40;;;9.03;;
52744;SDS011;38637;49.984;20.426;2023-03-20T06:48:20;13.10;;;8.13;;
52744;SDS011;38637;49.984;20.426;2023-03-20T06:50:49;12.23;;;8.43;;
52744;SDS011;38637;49.984;20.426;2023-03-20T06:53:15;11.00;;;8.18;;
52744;SDS011;38637;49.984;20.426;2023-03-20T06:55:41;11.50;;;7.80;;
52744;SDS011;38637;49.984;20.426;2023-03-20T06:58:15;13.90;;;8.32;;
52744;SDS011;38637;49.984;20.426;2023-03-20T07:00:41;10.60;;;8.07;;
52744;SDS011;38637;49.984;20.426;2023-03-20T07:03:07;10.20;;;7.40;;
52744;SDS011;38637;49.984;20.426;2023-03-20T07:05:32;14.03;;;8.13;;
52744;SDS011;38637;49.984;20.426;2023-03-20T07:07:58;11.82;;;8.35;;
52744;SDS011;38637;49.984;20.426;2023-03-20T07:10:24;15.97;;;8.73;;
52744;SDS011;38637;49.984;20.426;2023-03-20T07:12:49;23.33;;;8.23;;
52744;SDS011;38637;49.984;20.426;2023-03-20T07:15:15;12.17;;;7.80;;
52744;SDS011;38637;49.984;20.426;2023-03-20T07:17:41;17.13;;;7.95;;
52744;SDS011;38637;49.984;20.426;2023-03-20T07:20:06;11.17;;;7.87;;
52744;SDS011;38637;49.984;20.426;2023-03-20T07:22:32;9.82;;;7.43;;
52744;SDS011;38637;49.984;20.426;2023-03-20T07:24:58;16.60;;;7.87;;
52744;SDS011;38637;49.984;20.426;2023-03-20T07:27:23;20.07;;;7.57;;
52744;SDS011;38637;49.984;20.426;2023-03-20T07:29:49;13.13;;;7.37;;
52744;SDS011;38637;49.984;20.426;2023-03-20T07:32:14;13.97;;;9.10;;
52744;SDS011;38637;49.984;20.426;2023-03-20T07:34:40;14.75;;;8.90;;
52744;SDS011;38637;49.984;20.426;2023-03-20T07:37:06;13.90;;;7.57;;
52744;SDS011;38637;49.984;20.426;2023-03-20T07:39:31;12.40;;;8.43;;
52744;SDS011;38637;49.984;20.426;2023-03-20T07:41:56;8.13;;;6.43;;
52744;SDS011;38637;49.984;20.426;2023-03-20T07:44:22;11.33;;;7.50;;
52744;SDS011;38637;49.984;20.426;2023-03-20T07:46:47;12.73;;;7.20;;
52744;SDS011;38637;49.984;20.426;2023-03-20T07:49:13;11.37;;;7.30;;
52744;SDS011;38637;49.984;20.426;2023-03-20T07:51:39;9.73;;;6.60;;
52744;SDS011;38637;49.984;20.426;2023-03-20T07:54:05;13.63;;;6.93;;
52744;SDS011;38637;49.984;20.426;2023-03-20T07:56:30;10.13;;;6.83;;
52744;SDS011;38637;49.984;20.426;2023-03-20T07:58:55;15.17;;;7.00;;
52744;SDS011;38637;49.984;20.426;2023-03-20T08:01:21;14.60;;;7.47;;
52744;SDS011;38637;49.984;20.426;2023-03-20T08:03:46;14.47;;;7.93;;
52744;SDS011;38637;49.984;20.426;2023-03-20T08:06:12;12.70;;;9.80;;
52744;SDS011;38637;49.984;20.426;2023-03-20T08:08:37;22.30;;;11.83;;
52744;SDS011;38637;49.984;20.426;2023-03-20T08:11:02;24.40;;;11.10;;
52744;SDS011;38637;49.984;20.426;2023-03-20T08:13:28;18.63;;;11.03;;
52744;SDS011;38637;49.984;20.426;2023-03-20T08:15:53;14.93;;;8.63;;
52744;SDS011;38637;49.984;20.426;2023-03-20T08:18:18;14.10;;;8.30;;
52744;SDS011;38637;49.984;20.426;2023-03-20T08:20:46;13.43;;;8.70;;
52744;SDS011;38637;49.984;20.426;2023-03-20T08:23:11;12.43;;;8.73;;
52744;SDS011;38637;49.984;20.426;2023-03-20T08:25:37;17.03;;;8.57;;
52744;SDS011;38637;49.984;20.426;2023-03-20T08:28:02;15.80;;;9.00;;
52744;SDS011;38637;49.984;20.426;2023-03-20T08:30:28;10.70;;;8.43;;
52744;SDS011;38637;49.984;20.426;2023-03-20T08:32:54;15.43;;;9.27;;
52744;SDS011;38637;49.984;20.426;2023-03-20T08:35:19;11.43;;;8.67;;
52744;SDS011;38637;49.984;20.426;2023-03-20T08:37:45;17.17;;;9.83;;
52744;SDS011;38637;49.984;20.426;2023-03-20T08:40:10;17.67;;;10.30;;
52744;SDS011;38637;49.984;20.426;2023-03-20T08:42:36;12.90;;;9.37;;
52744;SDS011;38637;49.984;20.426;2023-03-20T08:45:01;15.73;;;9.03;;
52744;SDS011;38637;49.984;20.426;2023-03-20T08:47:26;17.07;;;9.60;;
52744;SDS011;38637;49.984;20.426;2023-03-20T08:49:52;17.67;;;8.90;;
52744;SDS011;38637;49.984;20.426;2023-03-20T08:52:17;15.70;;;8.97;;
52744;SDS011;38637;49.984;20.426;2023-03-20T08:54:42;18.53;;;9.33;;
52744;SDS011;38637;49.984;20.426;2023-03-20T08:57:08;12.80;;;8.90;;
52744;SDS011;38637;49.984;20.426;2023-03-20T08:59:33;12.00;;;9.20;;
52744;SDS011;38637;49.984;20.426;2023-03-20T09:01:58;13.40;;;8.57;;
52744;SDS011;38637;49.984;20.426;2023-03-20T09:04:24;15.77;;;9.07;;
52744;SDS011;38637;49.984;20.426;2023-03-20T09:06:49;12.93;;;8.90;;
52744;SDS011;38637;49.984;20.426;2023-03-20T09:09:15;12.27;;;8.97;;
52744;SDS011;38637;49.984;20.426;2023-03-20T09:11:43;12.20;;;9.60;;
52744;SDS011;38637;49.984;20.426;2023-03-20T09:14:08;12.90;;;9.57;;
52744;SDS011;38637;49.984;20.426;2023-03-20T09:16:34;16.52;;;10.82;;
52744;SDS011;38637;49.984;20.426;2023-03-20T09:19:00;17.10;;;10.90;;
52744;SDS011;38637;49.984;20.426;2023-03-20T09:21:25;16.53;;;11.80;;
52744;SDS011;38637;49.984;20.426;2023-03-20T09:23:50;17.10;;;12.50;;
52744;SDS011;38637;49.984;20.426;2023-03-20T09:26:16;14.90;;;11.57;;
52744;SDS011;38637;49.984;20.426;2023-03-20T09:28:41;16.77;;;11.53;;
52744;SDS011;38637;49.984;20.426;2023-03-20T09:31:06;17.63;;;12.40;;
52744;SDS011;38637;49.984;20.426;2023-03-20T09:33:32;19.27;;;12.30;;
52744;SDS011;38637;49.984;20.426;2023-03-20T09:35:57;18.23;;;13.10;;
52744;SDS011;38637;49.984;20.426;2023-03-20T09:38:22;20.60;;;12.53;;
52744;SDS011;38637;49.984;20.426;2023-03-20T09:51:56;21.35;;;15.18;;
52744;SDS011;38637;49.984;20.426;2023-03-20T09:54:27;21.00;;;15.65;;
52744;SDS011;38637;49.984;20.426;2023-03-20T09:56:59;19.40;;;14.60;;
52744;SDS011;38637;49.984;20.426;2023-03-20T09:59:26;19.50;;;14.82;;
52744;SDS011;38637;49.984;20.426;2023-03-20T10:01:54;21.65;;;15.65;;
52744;SDS011;38637;49.984;20.426;2023-03-20T10:04:24;20.90;;;14.95;;
52744;SDS011;38637;49.984;20.426;2023-03-20T10:06:52;19.25;;;15.35;;
52744;SDS011;38637;49.984;20.426;2023-03-20T10:20:47;19.63;;;14.25;;
52744;SDS011;38637;49.984;20.426;2023-03-20T10:26:11;20.95;;;14.30;;
52744;SDS011;38637;49.984;20.426;2023-03-20T10:28:40;23.13;;;17.50;;
52744;SDS011;38637;49.984;20.426;2023-03-20T10:42:18;17.42;;;13.32;;
52744;SDS011;38637;49.984;20.426;2023-03-20T10:44:50;22.25;;;15.35;;
52744;SDS011;38637;49.984;20.426;2023-03-20T10:47:21;21.15;;;14.98;;
52744;SDS011;38637;49.984;20.426;2023-03-20T10:49:51;27.38;;;15.57;;
52744;SDS011;38637;49.984;20.426;2023-03-20T10:52:27;17.75;;;13.77;;
52744;SDS011;38637;49.984;20.426;2023-03-20T10:55:00;19.25;;;13.80;;
52744;SDS011;38637;49.984;20.426;2023-03-20T10:57:32;22.77;;;13.55;;
52744;SDS011;38637;49.984;20.426;2023-03-20T11:00:03;19.35;;;13.73;;
52744;SDS011;38637;49.984;20.426;2023-03-20T11:02:34;22.08;;;14.52;;
52744;SDS011;38637;49.984;20.426;2023-03-20T11:08:00;20.40;;;13.73;;
52744;SDS011;38637;49.984;20.426;2023-03-20T11:10:36;19.23;;;13.85;;
52744;SDS011;38637;49.984;20.426;2023-03-20T11:13:03;16.80;;;13.63;;
52744;SDS011;38637;49.984;20.426;2023-03-20T11:15:50;21.00;;;13.80;;
52744;SDS011;38637;49.984;20.426;2023-03-20T11:18:17;20.00;;;14.15;;
52744;SDS011;38637;49.984;20.426;2023-03-20T11:20:43;16.67;;;12.90;;
52744;SDS011;38637;49.984;20.426;2023-03-20T11:25:45;16.02;;;12.85;;
52744;SDS011;38637;49.984;20.426;2023-03-20T11:28:17;15.95;;;13.05;;
52744;SDS011;38637;49.984;20.426;2023-03-20T11:30:45;17.05;;;11.02;;
52744;SDS011;38637;49.984;20.426;2023-03-20T11:33:12;13.30;;;10.13;;
52744;SDS011;38637;49.984;20.426;2023-03-20T11:35:43;14.20;;;10.02;;
52744;SDS011;38637;49.984;20.426;2023-03-20T11:38:15;17.38;;;11.38;;
52744;SDS011;38637;49.984;20.426;2023-03-20T11:40:43;15.90;;;10.82;;
52744;SDS011;38637;49.984;20.426;2023-03-20T11:43:13;12.50;;;9.98;;
52744;SDS011;38637;49.984;20.426;2023-03-20T11:45:44;14.20;;;10.82;;
52744;SDS011;38637;49.984;20.426;2023-03-20T11:48:21;19.77;;;10.65;;
52744;SDS011;38637;49.984;20.426;2023-03-20T11:50:58;12.02;;;9.00;;
52744;SDS011;38637;49.984;20.426;2023-03-20T11:53:30;14.23;;;9.93;;
52744;SDS011;38637;49.984;20.426;2023-03-20T11:56:20;14.43;;;9.43;;
52744;SDS011;38637;49.984;20.426;2023-03-20T11:58:51;14.85;;;10.32;;
52744;SDS011;38637;49.984;20.426;2023-03-20T12:01:19;13.38;;;9.82;;
52744;SDS011;38637;49.984;20.426;2023-03-20T12:07:05;12.60;;;8.55;;
52744;SDS011;38637;49.984;20.426;2023-03-20T12:14:29;13.10;;;9.65;;
52744;SDS011;38637;49.984;20.426;2023-03-20T12:25:53;10.25;;;8.18;;
52744;SDS011;38637;49.984;20.426;2023-03-20T12:28:27;12.10;;;9.00;;
52744;SDS011;38637;49.984;20.426;2023-03-20T12:31:03;12.25;;;9.82;;
52744;SDS011;38637;49.984;20.426;2023-03-20T12:33:44;17.83;;;9.50;;
52744;SDS011;38637;49.984;20.426;2023-03-20T12:36:19;19.00;;;10.90;;
52744;SDS011;38637;49.984;20.426;2023-03-20T12:38:52;19.08;;;11.30;;
52744;SDS011;38637;49.984;20.426;2023-03-20T12:49:40;18.88;;;12.60;;
52744;SDS011;38637;49.984;20.426;2023-03-20T13:00:40;14.63;;;11.05;;
52744;SDS011;38637;49.984;20.426;2023-03-20T13:03:20;14.43;;;10.52;;
52744;SDS011;38637;49.984;20.426;2023-03-20T13:06:07;13.55;;;10.60;;
52744;SDS011;38637;49.984;20.426;2023-03-20T13:17:49;12.88;;;11.23;;
52744;SDS011;38637;49.984;20.426;2023-03-20T13:20:27;16.13;;;11.68;;
52744;SDS011;38637;49.984;20.426;2023-03-20T13:34:53;18.42;;;14.23;;
52744;SDS011;38637;49.984;20.426;2023-03-20T13:45:37;23.35;;;15.30;;
52744;SDS011;38637;49.984;20.426;2023-03-20T13:48:50;21.55;;;14.70;;
52744;SDS011;38637;49.984;20.426;2023-03-20T13:50:59;15.88;;;11.38;;
52744;SDS011;38637;49.984;20.426;2023-03-20T13:56:58;14.15;;;10.15;;
52744;SDS011;38637;49.984;20.426;2023-03-20T14:02:18;16.30;;;9.77;;
52744;SDS011;38637;49.984;20.426;2023-03-20T14:05:00;16.45;;;9.32;;
52744;SDS011;38637;49.984;20.426;2023-03-20T14:07:32;11.20;;;7.97;;
52744;SDS011;38637;49.984;20.426;2023-03-20T14:12:59;11.88;;;9.70;;
52744;SDS011;38637;49.984;20.426;2023-03-20T14:15:35;15.73;;;10.18;;
52744;SDS011;38637;49.984;20.426;2023-03-20T14:18:03;14.52;;;9.80;;
52744;SDS011;38637;49.984;20.426;2023-03-20T14:20:37;16.10;;;10.50;;
52744;SDS011;38637;49.984;20.426;2023-03-20T14:23:05;12.70;;;10.43;;
52744;SDS011;38637;49.984;20.426;2023-03-20T14:25:41;12.07;;;9.90;;
52744;SDS011;38637;49.984;20.426;2023-03-20T14:28:21;11.80;;;10.50;;
52744;SDS011;38637;49.984;20.426;2023-03-20T14:30:51;15.15;;;9.07;;
52744;SDS011;38637;49.984;20.426;2023-03-20T14:33:40;20.85;;;9.35;;
52744;SDS011;38637;49.984;20.426;2023-03-20T14:36:26;13.57;;;9.10;;
52744;SDS011;38637;49.984;20.426;2023-03-20T14:39:13;11.95;;;8.40;;
52744;SDS011;38637;49.984;20.426;2023-03-20T14:41:55;9.50;;;7.40;;
52744;SDS011;38637;49.984;20.426;2023-03-20T14:47:21;10.13;;;6.75;;
52744;SDS011;38637;49.984;20.426;2023-03-20T14:50:02;8.68;;;7.78;;
52744;SDS011;38637;49.984;20.426;2023-03-20T14:52:44;10.93;;;9.00;;
52744;SDS011;38637;49.984;20.426;2023-03-20T14:57:43;12.23;;;9.37;;
52744;SDS011;38637;49.984;20.426;2023-03-20T15:00:19;11.70;;;9.30;;
52744;SDS011;38637;49.984;20.426;2023-03-20T15:02:56;11.00;;;8.63;;
52744;SDS011;38637;49.984;20.426;2023-03-20T15:05:30;12.90;;;8.57;;
52744;SDS011;38637;49.984;20.426;2023-03-20T15:08:01;11.65;;;8.35;;
52744;SDS011;38637;49.984;20.426;2023-03-20T15:13:03;16.55;;;12.32;;
52744;SDS011;38637;49.984;20.426;2023-03-20T15:15:31;25.13;;;16.35;;
52744;SDS011;38637;49.984;20.426;2023-03-20T15:18:09;31.25;;;21.67;;
52744;SDS011;38637;49.984;20.426;2023-03-20T15:20:37;26.92;;;19.65;;
52744;SDS011;38637;49.984;20.426;2023-03-20T15:23:03;29.40;;;20.27;;
52744;SDS011;38637;49.984;20.426;2023-03-20T15:25:35;32.92;;;22.60;;
52744;SDS011;38637;49.984;20.426;2023-03-20T15:28:04;34.53;;;23.40;;
52744;SDS011;38637;49.984;20.426;2023-03-20T15:30:31;30.40;;;23.85;;
52744;SDS011;38637;49.984;20.426;2023-03-20T15:33:00;37.33;;;24.38;;
52744;SDS011;38637;49.984;20.426;2023-03-20T15:35:26;31.67;;;25.13;;
52744;SDS011;38637;49.984;20.426;2023-03-20T15:37:51;34.38;;;22.73;;
52744;SDS011;38637;49.984;20.426;2023-03-20T15:40:23;30.48;;;22.48;;
52744;SDS011;38637;49.984;20.426;2023-03-20T15:42:52;31.33;;;23.10;;
52744;SDS011;38637;49.984;20.426;2023-03-20T15:45:31;35.42;;;25.67;;
52744;SDS011;38637;49.984;20.426;2023-03-20T15:48:04;39.17;;;25.80;;
52744;SDS011;38637;49.984;20.426;2023-03-20T15:50:34;36.15;;;27.08;;
52744;SDS011;38637;49.984;20.426;2023-03-20T15:53:01;43.30;;;30.05;;
52744;SDS011;38637;49.984;20.426;2023-03-20T15:55:28;41.40;;;30.17;;
52744;SDS011;38637;49.984;20.426;2023-03-20T15:57:58;41.53;;;28.80;;
52744;SDS011;38637;49.984;20.426;2023-03-20T16:02:54;43.30;;;31.77;;
52744;SDS011;38637;49.984;20.426;2023-03-20T16:05:23;47.22;;;34.67;;
52744;SDS011;38637;49.984;20.426;2023-03-20T16:07:50;45.72;;;33.50;;
52744;SDS011;38637;49.984;20.426;2023-03-20T16:12:49;45.40;;;33.25;;
52744;SDS011;38637;49.984;20.426;2023-03-20T16:15:16;46.17;;;34.00;;
52744;SDS011;38637;49.984;20.426;2023-03-20T16:20:12;44.90;;;32.70;;
52744;SDS011;38637;49.984;20.426;2023-03-20T16:22:39;45.88;;;34.83;;
52744;SDS011;38637;49.984;20.426;2023-03-20T16:25:08;45.83;;;35.33;;
52744;SDS011;38637;49.984;20.426;2023-03-20T16:27:38;50.50;;;35.13;;
52744;SDS011;38637;49.984;20.426;2023-03-20T16:30:06;51.13;;;36.83;;
52744;SDS011;38637;49.984;20.426;2023-03-20T16:32:38;55.63;;;37.63;;
52744;SDS011;38637;49.984;20.426;2023-03-20T16:35:19;76.63;;;46.05;;
52744;SDS011;38637;49.984;20.426;2023-03-20T16:37:53;80.70;;;48.13;;
52744;SDS011;38637;49.984;20.426;2023-03-20T16:40:28;69.55;;;45.72;;
52744;SDS011;38637;49.984;20.426;2023-03-20T16:43:01;87.82;;;48.90;;
52744;SDS011;38637;49.984;20.426;2023-03-20T16:45:30;77.68;;;50.35;;
52744;SDS011;38637;49.984;20.426;2023-03-20T16:50:36;68.45;;;49.63;;
52744;SDS011;38637;49.984;20.426;2023-03-20T16:53:04;72.65;;;49.75;;
52744;SDS011;38637;49.984;20.426;2023-03-20T16:55:42;85.57;;;55.30;;
52744;SDS011;38637;49.984;20.426;2023-03-20T16:58:10;73.65;;;48.63;;
52744;SDS011;38637;49.984;20.426;2023-03-20T17:00:48;81.38;;;49.45;;
52744;SDS011;38637;49.984;20.426;2023-03-20T17:03:17;80.47;;;52.00;;
52744;SDS011;38637;49.984;20.426;2023-03-20T17:05:48;71.47;;;49.08;;
52744;SDS011;38637;49.984;20.426;2023-03-20T17:11:12;65.10;;;47.05;;
52744;SDS011;38637;49.984;20.426;2023-03-20T17:13:40;70.05;;;49.63;;
52744;SDS011;38637;49.984;20.426;2023-03-20T17:16:08;66.18;;;48.17;;
52744;SDS011;38637;49.984;20.426;2023-03-20T17:18:37;66.95;;;48.72;;
52744;SDS011;38637;49.984;20.426;2023-03-20T17:21:02;68.13;;;49.90;;
52744;SDS011;38637;49.984;20.426;2023-03-20T17:23:28;72.27;;;50.27;;
52744;SDS011;38637;49.984;20.426;2023-03-20T17:25:59;62.15;;;45.97;;
52744;SDS011;38637;49.984;20.426;2023-03-20T17:28:27;70.25;;;50.38;;